Time;durP1;ratioP1;P1;durP2;ratioP2;P2;SDS_P1;SDS_P2;PMS_P1;PMS_P2;Temp;Humidity;BMP_temperature;BMP_pressure;BME280_temperature;BME280_humidity;BME280_pressure;Samples;Min_cycle;Max_cycle;Signal;HPM_P1;HPM_P2
2022/11/07 00:06:51;;;;;;;7.47;2.92;;;;;;;;;;21003101;28;20156;-67
2022/11/07 00:16:53;;;;;;;5.55;2.55;;;;;;;;;;21002792;28;20057;-69
2022/11/07 00:26:55;;;;;;;5.03;2.35;;;;;;;;;;21003270;28;20052;-67
2022/11/07 00:36:57;;;;;;;8.85;2.60;;;;;;;;;;21002092;28;20075;-66
2022/11/07 00:46:58;;;;;;;6.68;2.40;;;;;;;;;;21001057;28;20401;-66
2022/11/07 00:57:00;;;;;;;7.30;2.60;;;;;;;;;;20999163;28;20052;-66
2022/11/07 01:07:02;;;;;;;5.68;2.97;;;;;;;;;;20998652;28;20088;-65
2022/11/07 01:17:04;;;;;;;5.10;2.75;;;;;;;;;;20997694;28;20183;-69
2022/11/07 01:27:06;;;;;;;5.00;2.72;;;;;;;;;;20995456;28;20139;-65
2022/11/07 01:37:08;;;;;;;7.07;3.10;;;;;;;;;;20995712;28;20063;-66
2022/11/07 01:47:10;;;;;;;4.60;2.97;;;;;;;;;;20995358;28;20090;-69
2022/11/07 01:57:15;;;;;;;5.15;3.13;;;;;;;;;;20994929;28;20055;-66
2022/11/07 02:07:21;;;;;;;7.30;2.75;;;;;;;;;;20994287;28;20057;-68
2022/11/07 02:17:23;;;;;;;5.00;3.10;;;;;;;;;;20994457;28;20076;-66
2022/11/07 02:27:26;;;;;;;5.82;2.95;;;;;;;;;;20993354;28;20128;-70
2022/11/07 02:37:32;;;;;;;6.15;2.80;;;;;;;;;;20997109;28;20044;-70
2022/11/07 02:47:34;;;;;;;4.63;2.97;;;;;;;;;;21008976;28;20052;-70
2022/11/07 02:57:38;;;;;;;5.00;3.00;;;;;;;;;;21009222;28;20519;-69
2022/11/07 03:07:45;;;;;;;6.40;3.47;;;;;;;;;;21007668;28;20098;-69
2022/11/07 03:17:50;;;;;;;5.97;3.17;;;;;;;;;;21007332;28;20075;-68
2022/11/07 03:27:55;;;;;;;6.22;3.53;;;;;;;;;;21006836;28;20117;-66
2022/11/07 03:37:58;;;;;;;7.60;3.42;;;;;;;;;;21007290;28;20098;-69
2022/11/07 03:48:02;;;;;;;9.07;3.42;;;;;;;;;;21004524;28;20067;-70
2022/11/07 03:58:03;;;;;;;4.45;2.70;;;;;;;;;;21005148;28;20045;-70
2022/11/07 04:08:25;;;;;;;5.95;3.30;;;;;;;;;;21004851;28;20052;-69
2022/11/07 04:18:36;;;;;;;6.50;3.30;;;;;;;;;;21003508;28;20075;-68
2022/11/07 04:28:43;;;;;;;7.00;3.38;;;;;;;;;;21003061;28;20080;-70
2022/11/07 04:38:47;;;;;;;6.82;3.63;;;;;;;;;;21002268;28;20119;-71
2022/11/07 04:48:53;;;;;;;4.72;3.15;;;;;;;;;;21000147;28;20057;-70
2022/11/07 04:58:55;;;;;;;6.15;3.92;;;;;;;;;;21000199;28;20117;-69
2022/11/07 05:08:58;;;;;;;7.00;3.75;;;;;;;;;;20999555;28;20087;-67
2022/11/07 05:19:00;;;;;;;8.00;4.50;;;;;;;;;;20999394;28;20131;-68
2022/11/07 05:29:03;;;;;;;7.05;3.78;;;;;;;;;;20998212;28;20428;-70
2022/11/07 05:39:05;;;;;;;5.85;3.13;;;;;;;;;;20996495;28;20098;-70
2022/11/07 05:49:06;;;;;;;7.55;3.70;;;;;;;;;;20996605;28;20060;-68
2022/11/07 05:59:09;;;;;;;4.05;2.97;;;;;;;;;;20997267;28;20049;-69
2022/11/07 06:09:12;;;;;;;4.90;3.28;;;;;;;;;;20995927;28;20496;-70
2022/11/07 06:19:14;;;;;;;8.05;3.40;;;;;;;;;;21021435;28;20458;-67
2022/11/07 06:29:15;;;;;;;5.15;3.15;;;;;;;;;;21022787;28;20095;-70
2022/11/07 06:39:17;;;;;;;5.90;3.60;;;;;;;;;;21023166;28;20169;-67
2022/11/07 06:49:19;;;;;;;9.23;4.10;;;;;;;;;;21021412;28;20063;-68
2022/11/07 06:59:20;;;;;;;6.15;3.67;;;;;;;;;;21021633;28;20434;-66
2022/11/07 07:09:22;;;;;;;7.28;4.10;;;;;;;;;;21020762;28;20526;-68
2022/11/07 07:19:24;;;;;;;8.65;4.38;;;;;;;;;;21020975;28;20059;-67
2022/11/07 07:29:25;;;;;;;6.22;4.18;;;;;;;;;;21009256;28;20048;-67
2022/11/07 07:39:27;;;;;;;7.90;4.90;;;;;;;;;;21006250;28;20389;-65
2022/11/07 07:49:29;;;;;;;10.55;4.55;;;;;;;;;;21004994;28;20055;-70
2022/11/07 07:59:31;;;;;;;8.38;4.30;;;;;;;;;;21004633;28;20049;-66
2022/11/07 08:09:35;;;;;;;11.48;5.20;;;;;;;;;;21004297;28;20052;-68
2022/11/07 08:19:37;;;;;;;13.05;5.53;;;;;;;;;;21003484;28;20130;-70
2022/11/07 08:29:41;;;;;;;12.45;4.57;;;;;;;;;;21003689;28;20492;-70
2022/11/07 08:39:42;;;;;;;11.43;5.65;;;;;;;;;;21001330;28;20048;-70
2022/11/07 08:49:44;;;;;;;11.02;5.47;;;;;;;;;;20999430;28;20053;-67
2022/11/07 08:59:46;;;;;;;14.20;6.00;;;;;;;;;;21000447;28;20404;-67
2022/11/07 09:09:47;;;;;;;12.95;5.70;;;;;;;;;;20998888;28;20051;-66
2022/11/07 09:19:49;;;;;;;6.13;4.05;;;;;;;;;;20999237;28;20048;-68
2022/11/07 09:29:51;;;;;;;11.48;4.50;;;;;;;;;;20997266;28;20052;-69
2022/11/07 09:39:53;;;;;;;7.80;4.28;;;;;;;;;;20996560;28;20056;-65
2022/11/07 09:50:00;;;;;;;10.80;4.72;;;;;;;;;;21010214;28;20323;-67
2022/11/07 10:00:04;;;;;;;16.42;5.70;;;;;;;;;;20995624;28;20044;-67
2022/11/07 10:10:10;;;;;;;11.25;4.93;;;;;;;;;;20995004;28;20142;-70
2022/11/07 10:20:30;;;;;;;14.15;5.20;;;;;;;;;;20994750;28;20496;-69
2022/11/07 10:30:33;;;;;;;8.32;3.53;;;;;;;;;;20994500;28;20048;-65
2022/11/07 10:40:37;;;;;;;11.98;4.32;;;;;;;;;;20993600;28;20048;-61
2022/11/07 10:50:39;;;;;;;11.82;3.83;;;;;;;;;;20992097;28;20052;-60
2022/11/07 11:00:44;;;;;;;8.48;4.15;;;;;;;;;;21000388;28;20040;-63
2022/11/07 11:10:47;;;;;;;10.57;4.15;;;;;;;;;;21008598;28;20052;-75
2022/11/07 11:21:01;;;;;;;8.88;4.40;;;;;;;;;;21008553;28;20106;-65
2022/11/07 11:31:10;;;;;;;7.28;4.40;;;;;;;;;;21006401;28;20147;-66
2022/11/07 11:41:31;;;;;;;11.57;5.00;;;;;;;;;;21005919;28;20049;-67
2022/11/07 11:51:33;;;;;;;8.75;4.20;;;;;;;;;;21005320;28;20060;-63
2022/11/07 12:01:51;;;;;;;48.72;29.77;;;;;;;;;;21085824;28;20101;-68
2022/11/07 12:11:59;;;;;;;13.00;6.28;;;;;;;;;;21085212;28;20056;-60
2022/11/07 12:22:04;;;;;;;13.85;4.82;;;;;;;;;;21087974;28;20511;-59
2022/11/07 12:32:13;;;;;;;10.43;5.20;;;;;;;;;;21086693;28;20048;-61
2022/11/07 12:42:33;;;;;;;7.80;4.70;;;;;;;;;;21089318;28;20069;-62
2022/11/07 12:52:41;;;;;;;14.73;4.38;;;;;;;;;;21166777;28;20446;-65
2022/11/07 13:03:02;;;;;;;31.13;6.80;;;;;;;;;;21167846;28;20105;-67
2022/11/07 13:13:07;;;;;;;6.30;3.80;;;;;;;;;;21168467;28;20048;-72
2022/11/07 13:23:14;;;;;;;9.10;3.83;;;;;;;;;;21167727;28;20048;-71
2022/11/07 13:33:24;;;;;;;8.98;4.45;;;;;;;;;;21165903;28;20055;-70
2022/11/07 13:43:45;;;;;;;7.28;3.72;;;;;;;;;;21164963;28;20059;-71
2022/11/07 13:54:06;;;;;;;7.05;3.63;;;;;;;;;;21164463;28;20047;-70
2022/11/07 14:04:19;;;;;;;9.48;3.60;;;;;;;;;;21164301;28;20050;-71
2022/11/07 14:14:22;;;;;;;6.20;2.90;;;;;;;;;;21162985;28;20048;-70
2022/11/07 14:24:27;;;;;;;6.78;2.95;;;;;;;;;;21162900;28;20087;-71
2022/11/07 14:34:29;;;;;;;8.35;3.17;;;;;;;;;;21168823;28;20054;-70
2022/11/07 14:44:37;;;;;;;8.95;4.07;;;;;;;;;;21179189;28;20059;-71
2022/11/07 14:54:40;;;;;;;3.42;1.40;;;;;;;;;;21178442;28;20055;-71
2022/11/07 15:04:43;;;;;;;4.63;1.75;;;;;;;;;;21178988;28;20044;-71
2022/11/07 15:14:48;;;;;;;8.15;3.40;;;;;;;;;;21178498;28;20472;-71
2022/11/07 15:24:51;;;;;;;6.22;1.50;;;;;;;;;;21179118;28;20063;-71
2022/11/07 15:34:54;;;;;;;2.03;1.40;;;;;;;;;;21177970;28;20093;-71
2022/11/07 15:44:56;;;;;;;4.53;1.50;;;;;;;;;;21173915;28;20058;-71
2022/11/07 15:54:58;;;;;;;5.45;2.35;;;;;;;;;;21173831;28;20047;-72
2022/11/07 16:04:59;;;;;;;2.75;1.00;;;;;;;;;;21173466;28;20570;-71
2022/11/07 16:15:01;;;;;;;5.65;2.40;;;;;;;;;;21173112;28;20436;-71
2022/11/07 16:25:06;;;;;;;4.65;1.25;;;;;;;;;;21172702;28;20070;-71
2022/11/07 16:35:08;;;;;;;7.47;3.72;;;;;;;;;;21170651;28;20044;-71
2022/11/07 16:45:13;;;;;;;4.93;1.88;;;;;;;;;;21169868;28;20062;-71
2022/11/07 16:55:16;;;;;;;5.03;1.75;;;;;;;;;;21169251;28;20047;-72
2022/11/07 17:05:18;;;;;;;3.90;1.63;;;;;;;;;;21169372;28;20139;-70
2022/11/07 17:15:20;;;;;;;6.30;2.10;;;;;;;;;;21168120;28;20043;-71
2022/11/07 17:25:22;;;;;;;7.13;3.10;;;;;;;;;;21166014;28;20056;-70
2022/11/07 17:35:24;;;;;;;9.27;3.35;;;;;;;;;;21166320;28;20055;-71
2022/11/07 17:45:26;;;;;;;6.30;2.50;;;;;;;;;;21164396;28;20126;-71
2022/11/07 17:55:28;;;;;;;7.13;2.80;;;;;;;;;;21164011;28;20047;-71
2022/11/07 18:05:33;;;;;;;9.48;4.55;;;;;;;;;;21151565;28;20047;-71
2022/11/07 18:15:36;;;;;;;10.98;5.05;;;;;;;;;;21078307;28;20048;-73
2022/11/07 18:25:39;;;;;;;14.40;6.70;;;;;;;;;;21078398;28;20052;-71
2022/11/07 18:35:40;;;;;;;12.13;5.60;;;;;;;;;;21079242;28;20408;-75
2022/11/07 18:45:42;;;;;;;14.23;6.80;;;;;;;;;;21078539;28;20048;-75
2022/11/07 18:55:44;;;;;;;13.52;5.60;;;;;;;;;;21076435;28;20048;-71
2022/11/07 19:05:46;;;;;;;15.73;7.25;;;;;;;;;;21075987;28;20044;-74
2022/11/07 19:15:48;;;;;;;20.98;9.15;;;;;;;;;;21076594;28;20506;-64
2022/11/07 19:25:50;;;;;;;19.02;8.27;;;;;;;;;;21088896;28;20055;-69
2022/11/07 19:36:00;;;;;;;19.35;10.20;;;;;;;;;;21090625;28;20056;-62
2022/11/07 19:46:09;;;;;;;22.55;10.27;;;;;;;;;;21089855;28;20492;-62
2022/11/07 19:56:13;;;;;;;17.15;7.95;;;;;;;;;;21090100;28;20447;-63
2022/11/07 20:06:16;;;;;;;18.30;9.40;;;;;;;;;;21090383;28;20093;-65
2022/11/07 20:16:18;;;;;;;22.60;8.85;;;;;;;;;;21088275;28;20044;-66
2022/11/07 20:26:21;;;;;;;16.95;6.55;;;;;;;;;;21086963;28;20047;-69
2022/11/07 20:36:23;;;;;;;15.18;6.80;;;;;;;;;;21085763;28;20482;-68
2022/11/07 20:46:25;;;;;;;17.27;6.93;;;;;;;;;;21084788;28;20468;-67
2022/11/07 20:56:28;;;;;;;16.10;7.68;;;;;;;;;;21084584;28;20452;-63
2022/11/07 21:06:30;;;;;;;16.75;6.63;;;;;;;;;;21083404;28;20496;-65
2022/11/07 21:16:35;;;;;;;17.60;8.40;;;;;;;;;;21083150;28;20078;-67
2022/11/07 21:26:38;;;;;;;13.57;6.78;;;;;;;;;;21082663;28;20048;-68
2022/11/07 21:36:40;;;;;;;13.40;6.47;;;;;;;;;;21081946;28;20048;-68
2022/11/07 21:46:42;;;;;;;16.70;7.30;;;;;;;;;;21080912;28;20079;-66
2022/11/07 21:56:44;;;;;;;15.38;8.35;;;;;;;;;;21062326;28;20040;-67
2022/11/07 22:06:46;;;;;;;15.93;8.40;;;;;;;;;;21080422;28;20071;-63
2022/11/07 22:16:49;;;;;;;14.75;6.88;;;;;;;;;;21081083;28;20044;-63
2022/11/07 22:26:54;;;;;;;13.25;6.50;;;;;;;;;;21080115;28;20055;-65
2022/11/07 22:36:56;;;;;;;10.40;5.22;;;;;;;;;;21079236;28;20052;-63
2022/11/07 22:46:58;;;;;;;11.35;5.13;;;;;;;;;;21078768;28;20052;-63
2022/11/07 22:56:59;;;;;;;9.68;5.68;;;;;;;;;;21085879;28;20435;-62
2022/11/07 23:07:01;;;;;;;11.25;4.47;;;;;;;;;;21093809;28;20476;-61
2022/11/07 23:17:02;;;;;;;8.73;3.90;;;;;;;;;;21092327;28;20048;-62
2022/11/07 23:27:06;;;;;;;8.15;3.92;;;;;;;;;;21091507;28;20056;-62
2022/11/07 23:37:16;;;;;;;10.73;4.18;;;;;;;;;;21091320;28;20076;-62
